createdAt,value
2018-11-23T00:01:13.564Z,19.48
2018-11-23T00:04:03.689Z,20.57
2018-11-23T00:06:53.799Z,19.80
2018-11-23T00:09:44.011Z,18.17
2018-11-23T00:12:34.053Z,19.90
2018-11-23T00:15:24.999Z,19.93
2018-11-23T00:18:28.122Z,23.17
2018-11-23T00:20:58.157Z,22.25
2018-11-23T00:23:27.898Z,20.23
2018-11-23T00:25:57.592Z,21.03
2018-11-23T00:28:27.318Z,20.30
2018-11-23T00:30:57.177Z,18.83
2018-11-23T00:33:26.897Z,20.37
2018-11-23T00:35:56.862Z,20.73
2018-11-23T00:38:26.627Z,19.77
2018-11-23T00:40:56.467Z,20.23
2018-11-23T00:43:26.363Z,20.57
2018-11-23T00:45:56.169Z,21.73
2018-11-23T00:48:25.952Z,20.73
2018-11-23T00:50:55.833Z,19.03
2018-11-23T00:53:25.719Z,23.40
2018-11-23T00:55:55.547Z,20.83
2018-11-23T00:58:25.522Z,21.27
2018-11-23T01:00:55.402Z,22.40
2018-11-23T01:03:25.285Z,20.72
2018-11-23T01:05:54.888Z,20.92
2018-11-23T01:08:24.601Z,20.25
2018-11-23T01:10:54.468Z,21.67
2018-11-23T01:13:24.145Z,21.13
2018-11-23T01:15:53.899Z,20.30
2018-11-23T01:18:23.645Z,20.97
2018-11-23T01:20:53.239Z,18.73
2018-11-23T01:23:23.048Z,19.33
2018-11-23T01:25:53.003Z,20.53
2018-11-23T01:28:22.693Z,21.23
2018-11-23T01:30:52.474Z,20.03
2018-11-23T01:33:22.709Z,20.47
2018-11-23T01:35:52.559Z,21.10
2018-11-23T01:38:22.342Z,20.20
2018-11-23T01:40:52.035Z,19.95
2018-11-23T01:43:21.666Z,20.87
2018-11-23T01:45:51.597Z,20.75
2018-11-23T01:48:21.491Z,20.37
2018-11-23T01:50:51.226Z,22.07
2018-11-23T01:53:20.983Z,19.90
2018-11-23T01:55:50.814Z,20.07
2018-11-23T01:58:20.648Z,18.63
2018-11-23T02:00:50.544Z,20.13
2018-11-23T02:03:20.239Z,20.90
2018-11-23T02:05:51.199Z,20.77
2018-11-23T02:08:22.027Z,20.60
2018-11-23T02:10:51.728Z,21.57
2018-11-23T02:13:21.428Z,20.77
2018-11-23T02:15:51.073Z,20.77
2018-11-23T02:18:20.748Z,18.57
2018-11-23T02:20:50.349Z,20.17
2018-11-23T02:23:19.974Z,22.07
2018-11-23T02:25:49.748Z,19.30
2018-11-23T02:28:19.502Z,20.73
2018-11-23T02:30:50.989Z,20.10
2018-11-23T02:33:21.183Z,20.43
2018-11-23T02:35:50.829Z,20.83
2018-11-23T02:38:20.470Z,19.13
2018-11-23T02:40:50.041Z,18.77
2018-11-23T02:43:19.829Z,20.37
2018-11-23T02:45:49.458Z,18.97
2018-11-23T02:48:19.213Z,21.05
2018-11-23T02:50:49.022Z,20.33
2018-11-23T02:53:18.743Z,20.30
2018-11-23T02:55:48.564Z,19.70
2018-11-23T02:58:18.128Z,20.60
2018-11-23T03:00:47.668Z,20.70
2018-11-23T03:03:17.408Z,18.27
2018-11-23T03:05:48.179Z,22.20
2018-11-23T03:08:17.799Z,22.22
2018-11-23T03:10:47.638Z,22.70
2018-11-23T03:13:17.499Z,21.50
2018-11-23T03:15:47.235Z,21.03
2018-11-23T03:18:17.541Z,19.40
2018-11-23T03:20:47.464Z,21.80
2018-11-23T03:23:17.305Z,20.60
2018-11-23T03:25:47.128Z,20.68
2018-11-23T03:28:17.155Z,20.77
2018-11-23T03:30:46.854Z,19.37
2018-11-23T03:33:16.735Z,19.47
2018-11-23T03:35:46.730Z,20.90
2018-11-23T03:38:16.407Z,19.07
2018-11-23T03:40:46.165Z,20.43
2018-11-23T03:43:16.050Z,18.67
2018-11-23T03:45:45.598Z,19.80
2018-11-23T03:48:15.199Z,20.60
2018-11-23T03:50:44.775Z,17.83
2018-11-23T03:53:15.104Z,20.02
2018-11-23T04:00:41.959Z,17.90
2018-11-23T04:03:11.700Z,17.77
2018-11-23T04:05:41.450Z,18.80
2018-11-23T04:08:11.151Z,16.70
2018-11-23T04:10:40.920Z,19.30
2018-11-23T04:13:10.630Z,18.90
2018-11-23T04:15:40.206Z,18.93
2018-11-23T04:18:10.205Z,18.43
2018-11-23T04:20:39.884Z,19.67
2018-11-23T04:23:09.814Z,17.32
2018-11-23T04:25:39.763Z,19.30
2018-11-23T04:28:09.456Z,17.48
2018-11-23T04:30:39.229Z,19.40
2018-11-23T04:33:08.939Z,18.03
2018-11-23T04:35:38.571Z,20.60
2018-11-23T04:38:08.409Z,19.47
2018-11-23T04:40:38.245Z,18.60
2018-11-23T04:43:09.023Z,18.50
2018-11-23T04:45:39.819Z,18.25
2018-11-23T04:48:09.474Z,19.07
2018-11-23T04:50:39.166Z,16.87
2018-11-23T04:53:08.830Z,18.87
2018-11-23T04:55:38.830Z,18.60
2018-11-23T04:58:08.629Z,19.80
2018-11-23T05:00:38.270Z,18.87
2018-11-23T05:03:08.031Z,18.03
2018-11-23T05:05:37.810Z,19.43
2018-11-23T05:08:07.655Z,19.50
2018-11-23T05:10:37.268Z,18.85
2018-11-23T05:13:07.126Z,20.53
2018-11-23T05:15:36.841Z,17.82
2018-11-23T05:18:06.828Z,18.90
2018-11-23T05:20:36.454Z,17.40
2018-11-23T05:23:06.231Z,19.07
2018-11-23T05:25:35.920Z,18.37
2018-11-23T05:28:06.119Z,18.27
2018-11-23T05:30:35.898Z,18.47
2018-11-23T05:33:07.115Z,17.83
2018-11-23T05:35:37.719Z,19.10
2018-11-23T05:43:06.816Z,17.67
2018-11-23T05:45:36.471Z,18.67
2018-11-23T05:48:06.364Z,18.53
2018-11-23T05:50:36.204Z,18.87
2018-11-23T05:53:06.206Z,19.03
2018-11-23T05:55:35.960Z,17.90
2018-11-23T05:58:06.088Z,19.70
2018-11-23T06:00:35.861Z,17.87
2018-11-23T06:03:05.721Z,18.00
2018-11-23T06:05:35.670Z,17.70
2018-11-23T06:08:05.353Z,20.05
2018-11-23T06:10:35.022Z,17.67
2018-11-23T06:13:05.030Z,18.50
2018-11-23T06:15:34.715Z,17.17
2018-11-23T06:18:04.775Z,18.17
2018-11-23T06:20:34.421Z,19.60
2018-11-23T06:23:04.125Z,17.10
2018-11-23T06:25:41.830Z,18.07
2018-11-23T06:28:14.380Z,19.67
2018-11-23T06:30:44.058Z,19.47
2018-11-23T06:33:29.693Z,16.67
2018-11-23T06:35:59.356Z,19.30
2018-11-23T06:38:29.130Z,20.50
2018-11-23T06:40:59.412Z,24.87
2018-11-23T06:43:28.758Z,24.23
2018-11-23T06:45:59.711Z,18.07
2018-11-23T06:48:29.704Z,16.95
2018-11-23T06:50:59.324Z,17.80
2018-11-23T06:53:29.120Z,18.15
2018-11-23T06:55:59.668Z,19.77
2018-11-23T06:58:29.470Z,18.20
2018-11-23T07:00:59.408Z,18.00
2018-11-23T07:03:29.136Z,18.02
2018-11-23T07:05:59.481Z,18.42
2018-11-23T07:08:29.138Z,19.20
2018-11-23T07:10:59.794Z,17.87
2018-11-23T07:13:30.745Z,19.27
2018-11-23T07:16:00.780Z,19.40
2018-11-23T07:18:30.533Z,26.90
2018-11-23T07:21:01.174Z,49.58
2018-11-23T07:23:31.034Z,33.80
2018-11-23T07:26:01.029Z,21.00
2018-11-23T07:28:30.688Z,20.07
2018-11-23T07:31:02.510Z,18.83
2018-11-23T07:33:30.160Z,21.00
2018-11-23T07:35:59.833Z,19.77
2018-11-23T07:38:29.689Z,19.57
2018-11-23T07:41:16.295Z,23.30
2018-11-23T07:43:46.054Z,23.87
2018-11-23T07:46:15.864Z,24.73
2018-11-23T07:48:45.688Z,21.83
2018-11-23T07:52:37.610Z,22.60
2018-11-23T07:55:09.774Z,20.87
2018-11-23T07:57:39.739Z,21.60
2018-11-23T08:00:18.244Z,68.27
2018-11-23T08:02:48.620Z,62.67
2018-11-23T08:05:19.169Z,30.87
2018-11-23T08:07:48.954Z,23.93
2018-11-23T08:10:17.765Z,20.93
2018-11-23T08:12:48.813Z,20.93
2018-11-23T08:15:21.034Z,20.33
2018-11-23T08:17:50.829Z,21.20
2018-11-23T08:20:21.873Z,17.80
2018-11-23T08:22:51.852Z,21.17
2018-11-23T08:25:22.731Z,20.27
2018-11-23T08:27:53.810Z,21.60
2018-11-23T08:30:27.869Z,21.82
2018-11-23T08:32:58.051Z,20.77
2018-11-23T08:35:28.029Z,20.30
2018-11-23T08:37:59.819Z,22.17
2018-11-23T08:40:31.113Z,20.47
2018-11-23T08:43:00.776Z,21.70
2018-11-23T08:45:30.569Z,30.92
2018-11-23T08:48:00.437Z,63.83
2018-11-23T08:50:31.087Z,52.55
2018-11-23T08:53:01.144Z,28.83
2018-11-23T08:55:31.034Z,25.08
2018-11-23T08:58:01.094Z,26.87
2018-11-23T09:00:30.821Z,27.37
2018-11-23T09:03:02.166Z,26.27
2018-11-23T09:05:31.967Z,25.48
2018-11-23T09:08:01.705Z,23.30
2018-11-23T09:10:32.059Z,24.30
2018-11-23T09:13:03.751Z,25.08
2018-11-23T09:15:33.405Z,25.57
2018-11-23T09:18:02.999Z,25.30
2018-11-23T09:20:32.725Z,24.00
2018-11-23T09:23:02.371Z,26.50
2018-11-23T09:25:33.135Z,43.33
2018-11-23T09:28:03.474Z,39.55
2018-11-23T09:30:33.083Z,28.20
2018-11-23T09:33:02.865Z,25.50
2018-11-23T09:35:32.702Z,25.87
2018-11-23T09:38:02.407Z,25.93
2018-11-23T09:40:32.305Z,25.23
2018-11-23T09:43:02.200Z,27.53
2018-11-23T09:45:33.000Z,26.13
2018-11-23T09:48:04.041Z,25.73
2018-11-23T09:50:33.841Z,24.73
2018-11-23T09:53:04.759Z,24.40
2018-11-23T09:55:35.999Z,24.37
2018-11-23T09:58:05.929Z,26.10
2018-11-23T10:00:36.996Z,25.20
2018-11-23T10:03:07.716Z,28.67
2018-11-23T10:05:37.774Z,29.87
2018-11-23T10:08:08.402Z,28.27
2018-11-23T10:10:38.141Z,27.13
2018-11-23T10:13:08.021Z,27.20
2018-11-23T10:15:37.948Z,28.10
2018-11-23T10:18:07.581Z,28.77
2018-11-23T10:20:37.439Z,29.30
2018-11-23T10:23:07.411Z,27.00
2018-11-23T10:25:37.471Z,26.37
2018-11-23T10:28:07.248Z,28.17
2018-11-23T10:30:37.559Z,27.23
2018-11-23T10:33:07.842Z,38.93
2018-11-23T10:35:37.682Z,47.70
2018-11-23T10:43:05.760Z,31.53
2018-11-23T10:45:35.980Z,30.13
2018-11-23T10:48:06.903Z,31.47
2018-11-23T10:50:38.084Z,31.13
2018-11-23T10:53:08.297Z,30.30
2018-11-23T10:55:38.595Z,29.80
2018-11-23T10:58:08.392Z,30.47
2018-11-23T11:00:43.245Z,32.15
2018-11-23T11:03:18.245Z,31.50
2018-11-23T11:05:54.193Z,32.87
2018-11-23T11:08:22.996Z,33.73
2018-11-23T11:10:53.738Z,32.83
2018-11-23T11:13:23.567Z,29.60
2018-11-23T11:15:53.401Z,31.70
2018-11-23T11:18:23.156Z,29.73
2018-11-23T11:20:52.881Z,28.80
2018-11-23T11:23:22.976Z,30.80
2018-11-23T11:25:52.681Z,29.75
2018-11-23T11:28:22.449Z,29.50
2018-11-23T11:30:52.170Z,28.05
2018-11-23T11:33:22.089Z,29.87
2018-11-23T11:35:51.966Z,28.50
2018-11-23T11:38:21.762Z,28.17
2018-11-23T11:40:51.564Z,26.13
2018-11-23T11:43:21.280Z,25.67
2018-11-23T11:45:51.112Z,27.43
2018-11-23T11:48:20.844Z,25.90
2018-11-23T11:50:50.552Z,25.20
2018-11-23T11:53:20.466Z,27.77
2018-11-23T11:55:50.371Z,26.13
2018-11-23T11:58:20.129Z,26.13
2018-11-23T12:00:49.964Z,26.63
2018-11-23T12:03:19.751Z,26.73
2018-11-23T12:05:49.470Z,25.53
2018-11-23T12:08:19.265Z,26.10
2018-11-23T12:10:49.026Z,25.40
2018-11-23T12:13:18.811Z,26.48
2018-11-23T12:15:48.495Z,25.83
2018-11-23T12:18:18.240Z,28.17
2018-11-23T12:20:48.096Z,27.53
2018-11-23T12:23:18.054Z,29.70
2018-11-23T12:25:47.777Z,27.90
2018-11-23T12:28:17.564Z,27.03
2018-11-23T12:30:47.285Z,25.87
2018-11-23T12:33:17.180Z,27.03
2018-11-23T12:35:46.762Z,24.55
2018-11-23T12:38:16.629Z,24.70
2018-11-23T12:40:46.570Z,24.13
2018-11-23T12:43:16.411Z,23.83
2018-11-23T12:45:46.240Z,23.15
2018-11-23T12:48:16.026Z,24.20
2018-11-23T12:50:46.023Z,24.97
2018-11-23T12:53:15.933Z,24.33
2018-11-23T12:55:46.444Z,22.80
2018-11-23T12:58:16.292Z,23.80
2018-11-23T13:00:46.330Z,23.50
2018-11-23T13:03:16.815Z,23.43
2018-11-23T13:05:46.852Z,21.87
2018-11-23T13:08:16.887Z,22.47
2018-11-23T13:10:46.727Z,24.10
2018-11-23T13:13:16.782Z,23.37
2018-11-23T13:15:46.789Z,24.00
2018-11-23T13:18:16.826Z,23.70
2018-11-23T13:20:46.664Z,24.60
2018-11-23T13:23:17.599Z,23.57
2018-11-23T13:25:47.565Z,23.73
2018-11-23T13:28:17.756Z,23.80
2018-11-23T13:30:47.587Z,22.87
2018-11-23T13:33:17.540Z,21.95
2018-11-23T13:35:47.495Z,22.80
2018-11-23T13:38:17.672Z,20.50
2018-11-23T13:40:47.503Z,20.90
2018-11-23T13:43:17.633Z,21.05
2018-11-23T13:45:47.695Z,20.63
2018-11-23T13:48:20.115Z,21.15
2018-11-23T13:50:47.553Z,21.33
2018-11-23T13:53:17.867Z,22.33
2018-11-23T13:55:47.959Z,22.50
2018-11-23T13:58:18.065Z,22.07
2018-11-23T14:00:47.792Z,22.77
2018-11-23T14:03:18.043Z,22.27
2018-11-23T14:05:48.188Z,21.20
2018-11-23T14:08:18.069Z,22.90
2018-11-23T14:10:47.877Z,23.60
2018-11-23T14:13:18.136Z,24.07
2018-11-23T14:15:48.321Z,23.27
2018-11-23T14:18:18.268Z,24.37
2018-11-23T14:20:48.402Z,21.83
2018-11-23T14:23:18.264Z,22.30
2018-11-23T14:25:48.145Z,23.77
2018-11-23T14:28:18.102Z,22.77
2018-11-23T14:30:48.377Z,23.95
2018-11-23T14:33:18.346Z,21.63
2018-11-23T14:35:48.373Z,22.50
2018-11-23T14:38:18.487Z,21.60
2018-11-23T14:40:48.343Z,23.07
2018-11-23T14:43:18.399Z,23.10
2018-11-23T14:45:48.409Z,22.13
2018-11-23T14:48:18.066Z,21.43
2018-11-23T14:50:49.970Z,21.97
2018-11-23T14:53:19.707Z,22.73
2018-11-23T14:55:49.529Z,21.57
2018-11-23T14:58:19.487Z,24.15
2018-11-23T15:00:49.527Z,24.43
2018-11-23T15:03:19.499Z,23.18
2018-11-23T15:05:49.321Z,23.57
2018-11-23T15:08:19.297Z,22.22
2018-11-23T15:10:49.145Z,22.57
2018-11-23T15:13:19.107Z,23.73
2018-11-23T15:15:48.870Z,22.60
2018-11-23T15:18:18.887Z,23.70
2018-11-23T15:20:48.882Z,23.77
2018-11-23T15:23:21.234Z,22.53
2018-11-23T15:25:51.461Z,22.87
2018-11-23T15:28:21.270Z,23.13
2018-11-23T15:30:51.237Z,24.20
2018-11-23T15:33:21.177Z,23.22
2018-11-23T15:35:51.607Z,22.67
2018-11-23T15:38:23.184Z,23.18
2018-11-23T15:40:53.233Z,22.65
2018-11-23T15:43:23.343Z,23.20
2018-11-23T15:45:53.338Z,23.00
2018-11-23T15:48:23.279Z,22.57
2018-11-23T15:50:53.236Z,21.43
2018-11-23T15:53:23.204Z,24.17
2018-11-23T15:55:53.195Z,24.33
2018-11-23T15:58:23.255Z,25.00
2018-11-23T16:00:53.078Z,23.33
2018-11-23T16:03:23.058Z,23.20
2018-11-23T16:05:53.163Z,23.40
2018-11-23T16:08:23.312Z,23.43
2018-11-23T16:10:53.653Z,24.20
2018-11-23T16:13:23.765Z,23.33
2018-11-23T16:15:53.865Z,23.30
2018-11-23T16:18:23.892Z,24.20
2018-11-23T16:20:53.784Z,25.13
2018-11-23T16:23:23.675Z,24.20
2018-11-23T16:25:54.658Z,23.52
2018-11-23T16:28:24.856Z,23.50
2018-11-23T16:30:54.958Z,23.73
2018-11-23T16:33:25.683Z,26.00
2018-11-23T16:35:55.716Z,25.07
2018-11-23T16:38:25.917Z,26.00
2018-11-23T16:40:57.065Z,25.70
2018-11-23T16:43:27.026Z,24.83
2018-11-23T16:45:56.908Z,26.50
2018-11-23T16:48:26.998Z,26.40
2018-11-23T16:50:57.057Z,26.53
2018-11-23T16:53:26.946Z,26.13
2018-11-23T16:55:56.857Z,26.37
2018-11-23T16:58:26.694Z,26.57
2018-11-23T17:00:56.659Z,24.57
2018-11-23T17:03:26.408Z,26.37
2018-11-23T17:05:56.998Z,24.80
2018-11-23T17:08:27.031Z,25.80
2018-11-23T17:10:56.971Z,25.27
2018-11-23T17:13:26.928Z,25.43
2018-11-23T17:15:57.682Z,27.67
2018-11-23T17:18:27.645Z,26.33
2018-11-23T17:20:59.284Z,26.60
2018-11-23T17:23:27.781Z,27.52
2018-11-23T17:25:57.678Z,26.50
2018-11-23T17:28:27.843Z,26.27
2018-11-23T17:30:58.183Z,27.40
2018-11-23T17:33:28.317Z,27.00
2018-11-23T17:35:58.380Z,27.63
2018-11-23T17:38:28.237Z,26.87
2018-11-23T17:40:58.955Z,26.93
2018-11-23T17:43:29.081Z,29.23
2018-11-23T17:45:59.313Z,25.70
2018-11-23T17:48:29.438Z,26.03
2018-11-23T17:50:59.896Z,24.70
2018-11-23T17:53:29.820Z,25.03
2018-11-23T17:55:59.766Z,26.27
2018-11-23T17:58:29.538Z,25.60
2018-11-23T18:00:59.475Z,26.23
2018-11-23T18:03:29.439Z,26.93
2018-11-23T18:05:59.490Z,26.47
2018-11-23T18:08:29.644Z,26.33
2018-11-23T18:10:59.711Z,24.87
2018-11-23T18:13:30.186Z,26.07
2018-11-23T18:16:00.559Z,27.27
2018-11-23T18:18:30.701Z,25.35
2018-11-23T18:21:00.930Z,26.07
2018-11-23T18:23:31.076Z,24.07
2018-11-23T18:26:01.113Z,25.17
2018-11-23T18:28:31.084Z,24.20
2018-11-23T18:31:01.619Z,26.27
2018-11-23T18:33:31.550Z,24.63
2018-11-23T18:36:01.659Z,24.90
2018-11-23T18:38:31.568Z,25.73
2018-11-23T18:41:01.573Z,25.40
2018-11-23T18:43:31.911Z,28.90
2018-11-23T18:46:02.130Z,27.53
2018-11-23T18:48:32.312Z,28.03
2018-11-23T18:51:02.281Z,25.77
2018-11-23T18:53:32.204Z,25.97
2018-11-23T18:56:03.122Z,25.88
2018-11-23T18:58:33.953Z,22.40
2018-11-23T19:01:03.969Z,24.27
2018-11-23T19:03:34.567Z,25.07
2018-11-23T19:06:05.249Z,24.07
2018-11-23T19:08:35.296Z,22.47
2018-11-23T19:11:05.790Z,49.30
2018-11-23T19:13:35.783Z,65.00
2018-11-23T19:16:06.062Z,30.90
2018-11-23T19:18:36.283Z,27.73
2018-11-23T19:21:06.641Z,24.23
2018-11-23T19:23:36.746Z,24.97
2018-11-23T19:26:06.990Z,25.97
2018-11-23T19:28:37.111Z,25.12
2018-11-23T19:31:07.436Z,25.23
2018-11-23T19:33:37.435Z,24.73
2018-11-23T19:36:07.861Z,24.83
2018-11-23T19:38:37.892Z,25.13
2018-11-23T19:41:07.979Z,26.07
2018-11-23T19:43:37.985Z,24.55
2018-11-23T19:46:07.920Z,24.90
2018-11-23T19:48:37.995Z,24.63
2018-11-23T19:51:07.841Z,22.67
2018-11-23T19:53:37.672Z,23.42
2018-11-23T19:56:07.727Z,22.50
2018-11-23T19:58:37.779Z,24.37
2018-11-23T20:01:07.952Z,24.47
2018-11-23T20:03:38.054Z,29.17
2018-11-23T20:06:09.096Z,26.07
2018-11-23T20:08:40.234Z,23.47
2018-11-23T20:11:11.573Z,23.73
2018-11-23T20:18:40.009Z,23.93
2018-11-23T20:21:10.128Z,25.17
2018-11-23T20:23:40.481Z,94.83
2018-11-23T20:26:11.169Z,53.30
2018-11-23T20:28:41.259Z,34.03
2018-11-23T20:31:11.320Z,34.60
2018-11-23T20:33:41.736Z,32.00
2018-11-23T20:36:11.916Z,30.23
2018-11-23T20:38:42.028Z,33.40
2018-11-23T20:41:12.232Z,30.63
2018-11-23T20:43:42.493Z,29.93
2018-11-23T20:46:12.597Z,37.93
2018-11-23T20:48:42.656Z,45.90
2018-11-23T20:51:12.743Z,38.88
2018-11-23T20:53:43.104Z,33.28
2018-11-23T20:56:13.308Z,31.48
2018-11-23T20:58:43.289Z,30.37
2018-11-23T21:01:13.332Z,31.80
2018-11-23T21:03:43.313Z,28.07
2018-11-23T21:06:13.249Z,28.13
2018-11-23T21:08:43.262Z,26.73
2018-11-23T21:11:13.424Z,26.13
2018-11-23T21:13:43.437Z,25.50
2018-11-23T21:16:13.368Z,26.87
2018-11-23T21:18:43.905Z,24.80
2018-11-23T21:21:14.982Z,25.93
2018-11-23T21:28:41.805Z,24.50
2018-11-23T21:31:11.884Z,26.27
2018-11-23T21:33:42.034Z,26.63
2018-11-23T21:36:12.114Z,25.40
2018-11-23T21:38:42.149Z,26.70
2018-11-23T21:41:12.334Z,24.93
2018-11-23T21:43:42.531Z,24.50
2018-11-23T21:46:12.557Z,25.17
2018-11-23T21:48:42.594Z,25.87
2018-11-23T21:51:13.059Z,25.27
2018-11-23T21:53:43.303Z,24.07
2018-11-23T21:56:13.433Z,24.20
2018-11-23T21:58:43.298Z,24.33
2018-11-23T22:01:13.398Z,23.50
2018-11-23T22:03:43.598Z,22.75
2018-11-23T22:06:14.238Z,23.62
2018-11-23T22:08:44.371Z,27.47
2018-11-23T22:11:14.366Z,26.00
2018-11-23T22:13:44.269Z,27.42
2018-11-23T22:16:14.256Z,26.27
2018-11-23T22:18:44.450Z,27.73
2018-11-23T22:21:14.403Z,27.83
2018-11-23T22:23:44.557Z,27.60
2018-11-23T22:26:14.500Z,25.43
2018-11-23T22:28:44.476Z,26.73
2018-11-23T22:31:14.413Z,29.63
2018-11-23T22:33:44.429Z,28.23
2018-11-23T22:36:14.363Z,26.00
2018-11-23T22:38:44.376Z,28.30
2018-11-23T22:41:14.668Z,27.05
2018-11-23T22:43:45.664Z,27.80
2018-11-23T22:46:16.689Z,25.80
2018-11-23T22:48:46.659Z,26.03
2018-11-23T22:51:16.807Z,25.43
2018-11-23T22:53:46.581Z,25.92
2018-11-23T22:56:16.428Z,25.80
2018-11-23T22:58:46.234Z,25.20
2018-11-23T23:01:16.113Z,24.17
2018-11-23T23:03:46.057Z,23.77
2018-11-23T23:06:15.749Z,24.97
2018-11-23T23:08:45.533Z,26.07
2018-11-23T23:11:15.629Z,22.47
2018-11-23T23:13:45.675Z,23.73
2018-11-23T23:16:15.691Z,23.65
2018-11-23T23:18:45.530Z,24.90
2018-11-23T23:21:15.533Z,25.43
2018-11-23T23:23:45.327Z,25.17
2018-11-23T23:26:15.181Z,23.85
2018-11-23T23:28:44.946Z,26.30
2018-11-23T23:31:14.893Z,24.23
2018-11-23T23:33:44.881Z,24.70
2018-11-23T23:36:14.815Z,23.83
2018-11-23T23:38:44.968Z,24.70
2018-11-23T23:41:14.869Z,25.37
2018-11-23T23:43:44.707Z,24.93
2018-11-23T23:46:15.441Z,24.57
2018-11-23T23:48:46.342Z,25.37
2018-11-23T23:51:16.191Z,26.10
2018-11-23T23:53:46.227Z,25.13
2018-11-23T23:56:15.878Z,25.57
2018-11-23T23:58:45.818Z,25.93
